Time,TemperatureF,DewpointF,PressureIn,WindDirection,WindDirectionDegrees,WindSpeedMPH,WindSpeedGustMPH,Humidity,HourlyPrecipIn,Conditions,Clouds,dailyrainin,SolarRadiationWatts/m^2,SoftwareType,DateUTC
2013-01-23 00:04:00,66.0,60.0,30.19,NNE,18,4.0,-999.0,80,-99.99,,,0.00,0,weatherlink.com 1.10,2013-01-23 05:04:00,
2013-01-23 00:19:00,66.0,60.0,30.19,North,360,5.0,-999.0,80,-99.99,,,0.00,0,weatherlink.com 1.10,2013-01-23 05:19:00,
2013-01-23 00:34:00,65.9,60.0,30.19,North,360,3.0,-999.0,81,-99.99,,,0.00,0,weatherlink.com 1.10,2013-01-23 05:34:00,
2013-01-23 00:49:00,65.9,60.0,30.19,North,360,10.0,-999.0,81,-99.99,,,0.00,0,weatherlink.com 1.10,2013-01-23 05:49:00,
2013-01-23 01:04:00,65.7,60.0,30.19,North,360,6.0,-999.0,82,-99.99,,,0.00,0,weatherlink.com 1.10,2013-01-23 06:04:00,
2013-01-23 01:19:00,65.7,60.0,30.18,NNW,347,5.0,-999.0,82,-99.99,,,0.00,0,weatherlink.com 1.10,2013-01-23 06:19:00,
2013-01-23 01:34:00,65.8,61.0,30.20,NNE,15,7.0,-999.0,83,-99.99,,,0.00,0,weatherlink.com 1.10,2013-01-23 06:34:00,
2013-01-23 01:49:00,65.3,60.0,30.20,NNW,333,10.0,-999.0,83,-99.99,,,0.00,0,weatherlink.com 1.10,2013-01-23 06:49:00,
2013-01-23 02:04:00,65.0,60.0,30.19,NNW,342,9.0,-999.0,83,-99.99,,,0.00,0,weatherlink.com 1.10,2013-01-23 07:04:00,
2013-01-23 02:19:00,64.9,60.0,30.19,NNW,336,8.0,-999.0,84,-99.99,,,0.00,0,weatherlink.com 1.10,2013-01-23 07:19:00,
2013-01-23 02:34:00,64.9,60.0,30.19,NNE,15,6.0,-999.0,84,-99.99,,,0.00,0,weatherlink.com 1.10,2013-01-23 07:34:00,
2013-01-23 02:49:00,64.9,60.0,30.19,North,355,5.0,-999.0,84,-99.99,,,0.00,0,weatherlink.com 1.10,2013-01-23 07:49:00,
2013-01-23 03:04:00,64.8,60.0,30.17,North,350,10.0,-999.0,85,-99.99,,,0.00,0,weatherlink.com 1.10,2013-01-23 08:04:00,
2013-01-23 03:19:00,65.0,61.0,30.17,North,11,3.0,-999.0,86,-99.99,,,0.00,0,weatherlink.com 1.10,2013-01-23 08:19:00,
2013-01-23 03:34:00,65.7,60.0,30.17,NE,34,5.0,-999.0,83,-99.99,,,0.00,0,weatherlink.com 1.10,2013-01-23 08:34:00,
2013-01-23 03:50:00,68.2,59.0,30.18,NE,52,11.0,-999.0,73,-99.99,,,0.00,0,weatherlink.com 1.10,2013-01-23 08:50:00,
2013-01-23 04:05:00,68.9,59.0,30.18,NNE,29,9.0,-999.0,70,-99.99,,,0.00,0,weatherlink.com 1.10,2013-01-23 09:05:00,
2013-01-23 04:20:00,69.3,59.0,30.18,NNE,32,6.0,-999.0,70,-99.99,,,0.00,0,weatherlink.com 1.10,2013-01-23 09:20:00,
2013-01-23 04:35:00,69.6,59.0,30.18,NNE,20,11.0,-999.0,69,-99.99,,,0.00,0,weatherlink.com 1.10,2013-01-23 09:35:00,
2013-01-23 04:50:00,70.1,60.0,30.17,NE,51,7.0,-999.0,71,-99.99,,,0.00,0,weatherlink.com 1.10,2013-01-23 09:50:00,
2013-01-23 05:05:00,70.4,61.0,30.18,NE,51,8.0,-999.0,72,-99.99,,,0.00,0,weatherlink.com 1.10,2013-01-23 10:05:00,
2013-01-23 05:20:00,70.2,60.0,30.17,NE,38,9.0,-999.0,69,-99.99,,,0.00,0,weatherlink.com 1.10,2013-01-23 10:20:00,
2013-01-23 05:35:00,70.1,59.0,30.18,NE,36,8.0,-999.0,69,-99.99,,,0.00,0,weatherlink.com 1.10,2013-01-23 10:35:00,
2013-01-23 05:50:00,69.9,59.0,30.18,North,5,9.0,-999.0,68,-99.99,,,0.00,0,weatherlink.com 1.10,2013-01-23 10:50:00,
2013-01-23 06:05:00,70.3,61.0,30.19,NE,49,8.0,-999.0,73,-99.99,,,0.00,0,weatherlink.com 1.10,2013-01-23 11:05:00,
2013-01-23 06:20:00,70.3,61.0,30.20,NE,35,6.0,-999.0,72,-99.99,,,0.00,0,weatherlink.com 1.10,2013-01-23 11:20:00,
2013-01-23 06:35:00,70.3,61.0,30.20,NNE,26,5.0,-999.0,72,-99.99,,,0.00,0,weatherlink.com 1.10,2013-01-23 11:35:00,
2013-01-23 06:50:00,70.2,61.0,30.20,NE,49,6.0,-999.0,72,-99.99,,,0.00,0,weatherlink.com 1.10,2013-01-23 11:50:00,
2013-01-23 07:05:00,69.9,59.0,30.20,NE,44,6.0,-999.0,69,-99.99,,,0.00,0,weatherlink.com 1.10,2013-01-23 12:05:00,
2013-01-23 07:20:00,69.8,59.0,30.21,NE,38,7.0,-999.0,68,-99.99,,,0.00,18,weatherlink.com 1.10,2013-01-23 12:20:00,
2013-01-23 07:35:00,69.9,59.0,30.23,NE,49,6.0,-999.0,69,-99.99,,,0.00,44,weatherlink.com 1.10,2013-01-23 12:35:00,
2013-01-23 07:50:00,70.1,59.0,30.23,NE,38,7.0,-999.0,68,-99.99,,,0.00,25,weatherlink.com 1.10,2013-01-23 12:50:00,
2013-01-23 08:05:00,70.2,59.0,30.23,NNE,32,4.0,-999.0,68,-99.99,,,0.00,60,weatherlink.com 1.10,2013-01-23 13:05:00,
2013-01-23 08:20:00,70.4,58.0,30.23,NE,35,10.0,-999.0,66,-99.99,,,0.00,105,weatherlink.com 1.10,2013-01-23 13:20:00,
2013-01-23 08:35:00,71.6,59.0,30.24,NE,54,8.0,-999.0,65,-99.99,,,0.00,160,weatherlink.com 1.10,2013-01-23 13:35:00,
2013-01-23 08:50:00,71.6,59.0,30.25,NE,39,6.0,-999.0,64,-99.99,,,0.00,142,weatherlink.com 1.10,2013-01-23 13:50:00,
2013-01-23 09:05:00,71.5,59.0,30.26,ENE,61,6.0,-999.0,64,-99.99,,,0.00,162,weatherlink.com 1.10,2013-01-23 14:05:00,
2013-01-23 09:20:00,71.9,59.0,30.27,ENE,58,6.0,-999.0,64,-99.99,,,0.00,178,weatherlink.com 1.10,2013-01-23 14:20:00,
2013-01-23 09:35:00,72.2,56.0,30.28,ENE,63,5.0,-999.0,58,-99.99,,,0.00,200,weatherlink.com 1.10,2013-01-23 14:35:00,
2013-01-23 09:50:00,72.0,56.0,30.27,NNE,22,5.0,-999.0,58,-99.99,,,0.00,139,weatherlink.com 1.10,2013-01-23 14:50:00,
2013-01-23 10:05:00,71.6,57.0,30.27,NE,42,9.0,-999.0,61,-99.99,,,0.00,141,weatherlink.com 1.10,2013-01-23 15:05:00,
2013-01-23 10:20:00,71.7,57.0,30.27,NNE,31,6.0,-999.0,61,-99.99,,,0.00,185,weatherlink.com 1.10,2013-01-23 15:20:00,
2013-01-23 10:35:00,72.5,58.0,30.28,NE,47,5.0,-999.0,61,-99.99,,,0.00,272,weatherlink.com 1.10,2013-01-23 15:35:00,
2013-01-23 10:50:00,72.2,59.0,30.27,ENE,63,8.0,-999.0,63,-99.99,,,0.00,239,weatherlink.com 1.10,2013-01-23 15:50:00,
2013-01-23 11:05:00,72.2,58.0,30.27,NE,47,6.0,-999.0,61,-99.99,,,0.00,197,weatherlink.com 1.10,2013-01-23 16:05:00,
2013-01-23 11:21:00,72.0,58.0,30.27,NE,44,11.0,-999.0,61,-99.99,,,0.00,207,weatherlink.com 1.10,2013-01-23 16:21:00,
2013-01-23 11:36:00,72.0,59.0,30.26,East,82,12.0,-999.0,64,-99.99,,,0.00,272,weatherlink.com 1.10,2013-01-23 16:36:00,
2013-01-23 11:51:00,72.5,59.0,30.26,ENE,65,13.0,-999.0,63,-99.99,,,0.00,287,weatherlink.com 1.10,2013-01-23 16:51:00,
2013-01-23 12:06:00,72.5,60.0,30.25,NNE,28,13.0,-999.0,65,-99.99,,,0.00,229,weatherlink.com 1.10,2013-01-23 17:06:00,
2013-01-23 12:21:00,72.2,60.0,30.24,NE,48,7.0,-999.0,65,-99.99,,,0.00,258,weatherlink.com 1.10,2013-01-23 17:21:00,
2013-01-23 12:36:00,72.4,58.0,30.25,NNE,21,8.0,-999.0,61,-99.99,,,0.00,267,weatherlink.com 1.10,2013-01-23 17:36:00,
2013-01-23 12:51:00,72.9,60.0,30.23,NE,55,6.0,-999.0,64,-99.99,,,0.00,341,weatherlink.com 1.10,2013-01-23 17:51:00,
2013-01-23 13:06:00,72.8,59.0,30.23,ENE,59,7.0,-999.0,62,-99.99,,,0.00,306,weatherlink.com 1.10,2013-01-23 18:06:00,
2013-01-23 13:21:00,73.1,59.0,30.23,ENE,73,10.0,-999.0,62,-99.99,,,0.00,281,weatherlink.com 1.10,2013-01-23 18:21:00,
2013-01-23 13:36:00,73.3,60.0,30.23,ENE,70,12.0,-999.0,64,-99.99,,,0.00,454,weatherlink.com 1.10,2013-01-23 18:36:00,
2013-01-23 13:51:00,73.0,60.0,30.23,ENE,63,6.0,-999.0,64,-99.99,,,0.00,279,weatherlink.com 1.10,2013-01-23 18:51:00,
2013-01-23 14:06:00,72.9,59.0,30.21,ENE,58,5.0,-999.0,63,-99.99,,,0.00,230,weatherlink.com 1.10,2013-01-23 19:06:00,
2013-01-23 14:21:00,74.1,59.0,30.22,ENE,63,5.0,-999.0,59,-99.99,,,0.00,204,weatherlink.com 1.10,2013-01-23 19:21:00,
2013-01-23 14:36:00,74.4,59.0,30.21,NE,45,6.0,-999.0,60,-99.99,,,0.00,118,weatherlink.com 1.10,2013-01-23 19:36:00,
2013-01-23 14:51:00,73.1,60.0,30.21,NE,42,11.0,-999.0,64,-99.99,,,0.00,100,weatherlink.com 1.10,2013-01-23 19:51:00,
2013-01-23 15:06:00,73.7,59.0,30.21,NE,40,8.0,-999.0,60,-99.99,,,0.00,113,weatherlink.com 1.10,2013-01-23 20:06:00,
2013-01-23 15:21:00,73.8,59.0,30.21,NE,48,6.0,-999.0,61,-99.99,,,0.00,125,weatherlink.com 1.10,2013-01-23 20:21:00,
2013-01-23 15:36:00,73.4,60.0,30.21,NE,55,10.0,-999.0,63,-99.99,,,0.00,109,weatherlink.com 1.10,2013-01-23 20:36:00,
2013-01-23 15:51:00,73.5,60.0,30.21,NE,45,6.0,-999.0,63,-99.99,,,0.00,109,weatherlink.com 1.10,2013-01-23 20:51:00,
2013-01-23 16:06:00,73.5,59.0,30.21,NE,38,9.0,-999.0,60,-99.99,,,0.00,100,weatherlink.com 1.10,2013-01-23 21:06:00,
2013-01-23 16:21:00,73.4,59.0,30.21,NE,46,5.0,-999.0,60,-99.99,,,0.00,79,weatherlink.com 1.10,2013-01-23 21:21:00,
2013-01-23 16:36:00,72.5,59.0,30.21,NE,55,6.0,-999.0,62,-99.99,,,0.00,91,weatherlink.com 1.10,2013-01-23 21:36:00,
2013-01-23 16:51:00,72.1,60.0,30.21,NE,54,6.0,-999.0,65,-99.99,,,0.00,77,weatherlink.com 1.10,2013-01-23 21:51:00,
2013-01-23 17:06:00,71.7,59.0,30.21,NNE,15,6.0,-999.0,64,-99.99,,,0.00,42,weatherlink.com 1.10,2013-01-23 22:06:00,
2013-01-23 17:21:00,71.1,58.0,30.22,ENE,69,7.0,-999.0,63,-99.99,,,0.00,18,weatherlink.com 1.10,2013-01-23 22:21:00,
2013-01-23 17:36:00,70.9,58.0,30.23,NNE,22,6.0,-999.0,63,-99.99,,,0.00,42,weatherlink.com 1.10,2013-01-23 22:36:00,
2013-01-23 17:51:00,70.6,58.0,30.23,NNE,31,7.0,-999.0,64,-99.99,,,0.00,12,weatherlink.com 1.10,2013-01-23 22:51:00,
2013-01-23 18:06:00,70.2,57.0,30.24,NNE,32,5.0,-999.0,64,-99.99,,,0.00,0,weatherlink.com 1.10,2013-01-23 23:06:00,
2013-01-23 18:21:00,69.9,58.0,30.24,NE,40,4.0,-999.0,66,-99.99,,,0.00,0,weatherlink.com 1.10,2013-01-23 23:21:00,
2013-01-23 18:36:00,69.7,58.0,30.24,NNE,27,2.0,-999.0,67,-99.99,,,0.00,0,weatherlink.com 1.10,2013-01-23 23:36:00,
2013-01-23 18:51:00,69.6,58.0,30.24,NNE,26,5.0,-999.0,67,-99.99,,,0.00,0,weatherlink.com 1.10,2013-01-23 23:51:00,
2013-01-23 19:06:00,69.4,58.0,30.24,NNE,22,5.0,-999.0,67,-99.99,,,0.00,0,weatherlink.com 1.10,2013-01-24 00:06:00,
2013-01-23 19:21:00,69.5,58.0,30.24,NNE,31,3.0,-999.0,66,-99.99,,,0.00,0,weatherlink.com 1.10,2013-01-24 00:21:00,
2013-01-23 19:36:00,69.4,57.0,30.25,NNE,23,6.0,-999.0,66,-99.99,,,0.00,0,weatherlink.com 1.10,2013-01-24 00:36:00,
2013-01-23 19:51:00,69.5,58.0,30.25,NNE,26,8.0,-999.0,67,-99.99,,,0.00,0,weatherlink.com 1.10,2013-01-24 00:51:00,
2013-01-23 20:06:00,69.3,60.0,30.25,NNE,17,3.0,-999.0,71,-99.99,,,0.00,0,weatherlink.com 1.10,2013-01-24 01:06:00,
2013-01-23 20:21:00,68.9,60.0,30.25,NNE,12,4.0,-999.0,73,-99.99,,,0.00,0,weatherlink.com 1.10,2013-01-24 01:21:00,
2013-01-23 20:36:00,68.6,60.0,30.25,NNE,14,4.0,-999.0,73,-99.99,,,0.00,0,weatherlink.com 1.10,2013-01-24 01:36:00,
2013-01-23 20:51:00,68.4,60.0,30.26,North,360,3.0,-999.0,74,-99.99,,,0.00,0,weatherlink.com 1.10,2013-01-24 01:51:00,
2013-01-23 21:06:00,68.3,60.0,30.25,NNE,24,3.0,-999.0,74,-99.99,,,0.00,0,weatherlink.com 1.10,2013-01-24 02:06:00,
2013-01-23 21:21:00,68.3,60.0,30.27,NNE,23,3.0,-999.0,75,-99.99,,,0.00,0,weatherlink.com 1.10,2013-01-24 02:21:00,
2013-01-23 21:36:00,68.4,61.0,30.26,NNW,342,7.0,-999.0,77,-99.99,,,0.00,0,weatherlink.com 1.10,2013-01-24 02:36:00,
2013-01-23 21:51:00,68.4,61.0,30.26,NE,45,6.0,-999.0,77,-99.99,,,0.00,0,weatherlink.com 1.10,2013-01-24 02:51:00,
2013-01-23 22:06:00,68.2,61.0,30.27,NNE,30,6.0,-999.0,77,-99.99,,,0.00,0,weatherlink.com 1.10,2013-01-24 03:06:00,
2013-01-23 22:21:00,68.2,61.0,30.26,NNE,17,4.0,-999.0,77,-99.99,,,0.00,0,weatherlink.com 1.10,2013-01-24 03:21:00,
2013-01-23 22:36:00,68.0,61.0,30.26,NE,35,4.0,-999.0,78,-99.99,,,0.00,0,weatherlink.com 1.10,2013-01-24 03:36:00,
2013-01-23 22:51:00,67.6,61.0,30.26,NNW,340,5.0,-999.0,78,-99.99,,,0.00,0,weatherlink.com 1.10,2013-01-24 03:51:00,
2013-01-23 23:06:00,67.4,60.0,30.26,NE,45,7.0,-999.0,77,-99.99,,,0.00,0,weatherlink.com 1.10,2013-01-24 04:06:00,
2013-01-23 23:21:00,67.5,60.0,30.26,NNE,30,4.0,-999.0,77,-99.99,,,0.00,0,weatherlink.com 1.10,2013-01-24 04:21:00,
2013-01-23 23:36:00,67.4,60.0,30.25,NE,55,2.0,-999.0,78,-99.99,,,0.00,0,weatherlink.com 1.10,2013-01-24 04:36:00,
2013-01-23 23:52:00,67.1,60.0,30.24,NE,54,2.0,-999.0,78,-99.99,,,0.00,0,weatherlink.com 1.10,2013-01-24 04:52:00,